sensor_id;sensor_type;location;lat;lon;timestamp;pressure;altitude;pressure_sealevel;temperature;humidity
58879;BME280;44660;42.664;23.266;2023-05-03T00:02:21;94734.69;;;11.74;42.84
58879;BME280;44660;42.664;23.266;2023-05-03T00:04:46;94789.00;;;12.07;42.76
58879;BME280;44660;42.664;23.266;2023-05-03T00:07:12;94784.22;;;12.09;42.76
58879;BME280;44660;42.664;23.266;2023-05-03T00:09:38;94771.25;;;11.96;42.50
58879;BME280;44660;42.664;23.266;2023-05-03T00:12:04;94796.50;;;12.10;42.32
58879;BME280;44660;42.664;23.266;2023-05-03T00:14:30;94752.09;;;11.82;42.53
58879;BME280;44660;42.664;23.266;2023-05-03T00:16:56;94764.38;;;11.83;42.36
58879;BME280;44660;42.664;23.266;2023-05-03T00:19:21;94784.22;;;11.92;42.37
58879;BME280;44660;42.664;23.266;2023-05-03T00:21:54;94778.34;;;11.90;42.28
58879;BME280;44660;42.664;23.266;2023-05-03T00:24:19;94772.16;;;11.67;42.30
58879;BME280;44660;42.664;23.266;2023-05-03T00:26:45;94808.78;;;11.94;42.23
58879;BME280;44660;42.664;23.266;2023-05-03T00:29:11;94788.94;;;11.85;42.44
58879;BME280;44660;42.664;23.266;2023-05-03T00:31:36;94801.69;;;11.83;42.20
58879;BME280;44660;42.664;23.266;2023-05-03T00:34:01;94810.25;;;11.85;42.21
58879;BME280;44660;42.664;23.266;2023-05-03T00:36:27;94796.38;;;11.66;42.22
58879;BME280;44660;42.664;23.266;2023-05-03T00:38:53;94816.63;;;11.84;42.37
58879;BME280;44660;42.664;23.266;2023-05-03T00:41:19;94810.25;;;11.85;42.23
58879;BME280;44660;42.664;23.266;2023-05-03T00:43:44;94803.16;;;11.73;42.43
58879;BME280;44660;42.664;23.266;2023-05-03T00:46:10;94813.44;;;11.87;42.21
58879;BME280;44660;42.664;23.266;2023-05-03T00:48:35;94829.13;;;11.83;42.26
58879;BME280;44660;42.664;23.266;2023-05-03T00:51:02;94779.25;;;11.62;42.52
58879;BME280;44660;42.664;23.266;2023-05-03T00:53:29;94817.34;;;11.79;42.68
58879;BME280;44660;42.664;23.266;2023-05-03T00:55:58;94801.78;;;11.71;42.49
58879;BME280;44660;42.664;23.266;2023-05-03T00:58:25;94819.75;;;11.64;42.28
58879;BME280;44660;42.664;23.266;2023-05-03T01:00:51;94823.41;;;11.74;42.00
58879;BME280;44660;42.664;23.266;2023-05-03T01:03:17;94798.78;;;11.50;41.94
58879;BME280;44660;42.664;23.266;2023-05-03T01:08:46;94759.88;;;11.15;42.43
58879;BME280;44660;42.664;23.266;2023-05-03T01:11:26;94739.16;;;11.00;42.38
58879;BME280;44660;42.664;23.266;2023-05-03T01:13:59;94808.78;;;11.43;42.49
58879;BME280;44660;42.664;23.266;2023-05-03T01:16:35;94745.84;;;11.03;42.34
58879;BME280;44660;42.664;23.266;2023-05-03T01:19:11;94801.06;;;11.41;42.44
58879;BME280;44660;42.664;23.266;2023-05-03T01:21:41;94798.28;;;11.36;42.27
58879;BME280;44660;42.664;23.266;2023-05-03T01:24:17;94797.97;;;11.33;42.66
58879;BME280;44660;42.664;23.266;2023-05-03T01:26:46;94779.41;;;11.21;42.64
58879;BME280;44660;42.664;23.266;2023-05-03T01:29:13;94787.25;;;11.27;42.87
58879;BME280;44660;42.664;23.266;2023-05-03T01:31:52;94765.50;;;11.02;43.06
58879;BME280;44660;42.664;23.266;2023-05-03T01:34:40;94811.34;;;11.21;43.03
58879;BME280;44660;42.664;23.266;2023-05-03T01:37:07;94768.41;;;11.00;42.87
58879;BME280;44660;42.664;23.266;2023-05-03T01:39:47;94768.59;;;11.10;42.99
58879;BME280;44660;42.664;23.266;2023-05-03T01:42:13;94780.06;;;11.28;42.75
58879;BME280;44660;42.664;23.266;2023-05-03T01:44:40;94751.09;;;11.15;42.68
58879;BME280;44660;42.664;23.266;2023-05-03T01:47:07;94736.41;;;10.95;42.44
58879;BME280;44660;42.664;23.266;2023-05-03T01:49:33;94763.44;;;11.21;42.72
58879;BME280;44660;42.664;23.266;2023-05-03T01:51:59;94765.38;;;11.25;42.76
58879;BME280;44660;42.664;23.266;2023-05-03T01:54:25;94740.34;;;11.09;42.81
58879;BME280;44660;42.664;23.266;2023-05-03T01:56:50;94733.66;;;10.90;42.85
58879;BME280;44660;42.664;23.266;2023-05-03T01:59:16;94736.97;;;10.97;43.03
58879;BME280;44660;42.664;23.266;2023-05-03T02:01:41;94761.66;;;11.26;42.79
58879;BME280;44660;42.664;23.266;2023-05-03T02:04:07;94726.97;;;11.04;42.84
58879;BME280;44660;42.664;23.266;2023-05-03T02:06:33;94732.16;;;11.11;42.63
58879;BME280;44660;42.664;23.266;2023-05-03T02:08:58;94733.75;;;11.12;42.93
58879;BME280;44660;42.664;23.266;2023-05-03T02:11:24;94716.66;;;11.08;42.93
58879;BME280;44660;42.664;23.266;2023-05-03T02:13:50;94741.97;;;11.10;42.89
58879;BME280;44660;42.664;23.266;2023-05-03T02:16:16;94742.63;;;11.18;42.92
58879;BME280;44660;42.664;23.266;2023-05-03T02:18:42;94707.13;;;10.95;43.16
58879;BME280;44660;42.664;23.266;2023-05-03T02:21:08;94734.25;;;11.09;43.33
58879;BME280;44660;42.664;23.266;2023-05-03T02:23:34;94693.75;;;10.90;43.42
58879;BME280;44660;42.664;23.266;2023-05-03T02:26:00;94722.81;;;11.08;43.29
58879;BME280;44660;42.664;23.266;2023-05-03T02:28:25;94687.78;;;10.83;43.21
58879;BME280;44660;42.664;23.266;2023-05-03T02:30:51;94709.09;;;11.00;43.30
58879;BME280;44660;42.664;23.266;2023-05-03T02:33:16;94744.34;;;11.24;43.41
58879;BME280;44660;42.664;23.266;2023-05-03T02:35:42;94715.19;;;11.00;43.40
58879;BME280;44660;42.664;23.266;2023-05-03T02:38:07;94726.50;;;11.07;42.97
58879;BME280;44660;42.664;23.266;2023-05-03T02:40:33;94727.47;;;11.01;43.11
58879;BME280;44660;42.664;23.266;2023-05-03T02:42:58;94732.16;;;11.11;43.14
58879;BME280;44660;42.664;23.266;2023-05-03T02:45:24;94740.28;;;11.04;42.84
58879;BME280;44660;42.664;23.266;2023-05-03T02:47:49;94760.69;;;11.16;43.33
58879;BME280;44660;42.664;23.266;2023-05-03T02:50:15;94746.16;;;11.06;43.40
58879;BME280;44660;42.664;23.266;2023-05-03T02:52:40;94713.13;;;11.02;43.07
58879;BME280;44660;42.664;23.266;2023-05-03T02:55:06;94736.47;;;11.17;43.45
58879;BME280;44660;42.664;23.266;2023-05-03T02:57:31;94712.63;;;11.05;43.37
58879;BME280;44660;42.664;23.266;2023-05-03T02:59:57;94730.88;;;11.14;43.49
58879;BME280;44660;42.664;23.266;2023-05-03T03:02:22;94736.81;;;11.04;43.77
58879;BME280;44660;42.664;23.266;2023-05-03T03:04:48;94739.06;;;10.95;43.90
58879;BME280;44660;42.664;23.266;2023-05-03T03:07:13;94745.41;;;10.94;43.70
58879;BME280;44660;42.664;23.266;2023-05-03T03:09:39;94739.06;;;10.95;43.78
58879;BME280;44660;42.664;23.266;2023-05-03T03:12:05;94728.25;;;10.85;43.96
58879;BME280;44660;42.664;23.266;2023-05-03T03:14:30;94762.47;;;11.10;44.23
58879;BME280;44660;42.664;23.266;2023-05-03T03:16:57;94761.47;;;10.99;44.27
58879;BME280;44660;42.664;23.266;2023-05-03T03:19:22;94748.00;;;10.89;44.37
58879;BME280;44660;42.664;23.266;2023-05-03T03:21:47;94755.97;;;10.89;44.26
58879;BME280;44660;42.664;23.266;2023-05-03T03:24:13;94765.47;;;11.14;44.09
58879;BME280;44660;42.664;23.266;2023-05-03T03:26:40;94714.69;;;10.69;43.89
58879;BME280;44660;42.664;23.266;2023-05-03T03:29:05;94773.44;;;11.14;43.97
58879;BME280;44660;42.664;23.266;2023-05-03T03:31:30;94760.06;;;11.08;43.78
58879;BME280;44660;42.664;23.266;2023-05-03T03:33:56;94748.16;;;10.99;44.02
58879;BME280;44660;42.664;23.266;2023-05-03T03:36:21;94789.72;;;11.17;43.77
58879;BME280;44660;42.664;23.266;2023-05-03T03:38:47;94794.25;;;11.17;44.22
58879;BME280;44660;42.664;23.266;2023-05-03T03:41:12;94789.88;;;11.10;43.91
58879;BME280;44660;42.664;23.266;2023-05-03T03:43:38;94805.38;;;11.14;43.93
58879;BME280;44660;42.664;23.266;2023-05-03T03:46:03;94793.91;;;11.13;43.75
58879;BME280;44660;42.664;23.266;2023-05-03T03:48:29;94774.88;;;11.04;43.73
58879;BME280;44660;42.664;23.266;2023-05-03T03:50:54;94785.13;;;11.13;43.74
58879;BME280;44660;42.664;23.266;2023-05-03T03:53:20;94785.69;;;11.15;44.08
58879;BME280;44660;42.664;23.266;2023-05-03T03:55:45;94789.22;;;11.03;44.63
58879;BME280;44660;42.664;23.266;2023-05-03T03:58:11;94785.91;;;10.96;44.24
58879;BME280;44660;42.664;23.266;2023-05-03T04:00:37;94799.84;;;11.03;44.32
58879;BME280;44660;42.664;23.266;2023-05-03T04:03:03;94794.22;;;11.00;44.31
58879;BME280;44660;42.664;23.266;2023-05-03T04:05:29;94803.78;;;11.01;44.30
58879;BME280;44660;42.664;23.266;2023-05-03T04:07:57;94813.28;;;11.08;44.27
58879;BME280;44660;42.664;23.266;2023-05-03T04:10:22;94818.78;;;11.19;43.97
58879;BME280;44660;42.664;23.266;2023-05-03T04:12:48;94781.97;;;10.99;44.01
58879;BME280;44660;42.664;23.266;2023-05-03T04:15:13;94797.06;;;11.10;44.13
58879;BME280;44660;42.664;23.266;2023-05-03T04:17:39;94811.97;;;11.11;44.18
58879;BME280;44660;42.664;23.266;2023-05-03T04:20:05;94816.31;;;11.17;44.22
58879;BME280;44660;42.664;23.266;2023-05-03T04:22:35;94823.75;;;11.15;44.07
58879;BME280;44660;42.664;23.266;2023-05-03T04:25:04;94827.72;;;11.13;44.27
58879;BME280;44660;42.664;23.266;2023-05-03T04:27:29;94841.19;;;11.23;44.22
58879;BME280;44660;42.664;23.266;2023-05-03T04:29:55;94818.09;;;11.11;44.04
58879;BME280;44660;42.664;23.266;2023-05-03T04:32:20;94847.56;;;11.22;44.07
58879;BME280;44660;42.664;23.266;2023-05-03T04:34:50;94853.78;;;11.27;44.02
58879;BME280;44660;42.664;23.266;2023-05-03T04:37:21;94820.69;;;11.06;44.19
58879;BME280;44660;42.664;23.266;2023-05-03T04:39:47;94857.84;;;11.30;44.24
58879;BME280;44660;42.664;23.266;2023-05-03T04:42:13;94859.03;;;11.22;43.88
58879;BME280;44660;42.664;23.266;2023-05-03T04:44:42;94859.16;;;11.16;44.36
58879;BME280;44660;42.664;23.266;2023-05-03T04:47:08;94873.94;;;11.23;44.34
58879;BME280;44660;42.664;23.266;2023-05-03T04:49:34;94870.06;;;11.31;44.16
58879;BME280;44660;42.664;23.266;2023-05-03T04:52:00;94871.06;;;11.25;44.27
58879;BME280;44660;42.664;23.266;2023-05-03T04:54:25;94871.19;;;11.18;44.22
58879;BME280;44660;42.664;23.266;2023-05-03T04:56:52;94860.34;;;11.08;44.59
58879;BME280;44660;42.664;23.266;2023-05-03T04:59:18;94865.75;;;11.13;44.36
58879;BME280;44660;42.664;23.266;2023-05-03T05:01:43;94874.22;;;11.10;44.54
58879;BME280;44660;42.664;23.266;2023-05-03T05:04:08;94881.13;;;11.23;44.40
58879;BME280;44660;42.664;23.266;2023-05-03T05:06:34;94864.47;;;11.16;44.66
58879;BME280;44660;42.664;23.266;2023-05-03T05:08:59;94834.84;;;10.95;44.85
58879;BME280;44660;42.664;23.266;2023-05-03T05:11:25;94891.69;;;11.35;45.43
58879;BME280;44660;42.664;23.266;2023-05-03T05:13:51;94869.72;;;11.10;46.19
58879;BME280;44660;42.664;23.266;2023-05-03T05:16:17;94882.66;;;11.07;46.40
58879;BME280;44660;42.664;23.266;2023-05-03T05:18:43;94903.75;;;11.08;47.19
58879;BME280;44660;42.664;23.266;2023-05-03T05:21:09;94891.00;;;11.10;46.98
58879;BME280;44660;42.664;23.266;2023-05-03T05:23:34;94881.09;;;10.94;47.54
58879;BME280;44660;42.664;23.266;2023-05-03T05:26:00;94901.63;;;11.10;47.53
58879;BME280;44660;42.664;23.266;2023-05-03T05:28:26;94901.59;;;10.93;48.21
58879;BME280;44660;42.664;23.266;2023-05-03T05:30:52;94890.59;;;10.90;48.82
58879;BME280;44660;42.664;23.266;2023-05-03T05:33:18;94901.94;;;10.97;48.77
58879;BME280;44660;42.664;23.266;2023-05-03T05:35:44;94900.31;;;10.96;48.88
58879;BME280;44660;42.664;23.266;2023-05-03T05:38:10;94910.38;;;10.94;48.78
58879;BME280;44660;42.664;23.266;2023-05-03T05:40:36;94884.25;;;10.79;49.35
58879;BME280;44660;42.664;23.266;2023-05-03T05:43:03;94904.16;;;10.88;49.22
58879;BME280;44660;42.664;23.266;2023-05-03T05:45:28;94915.59;;;10.89;49.31
58879;BME280;44660;42.664;23.266;2023-05-03T05:47:54;94903.72;;;10.80;49.37
58879;BME280;44660;42.664;23.266;2023-05-03T05:50:20;94868.13;;;10.57;49.61
58879;BME280;44660;42.664;23.266;2023-05-03T05:52:46;94920.31;;;10.87;49.82
58879;BME280;44660;42.664;23.266;2023-05-03T05:55:11;94892.47;;;10.77;49.76
58879;BME280;44660;42.664;23.266;2023-05-03T05:57:38;94914.66;;;10.95;49.47
58879;BME280;44660;42.664;23.266;2023-05-03T06:00:05;94898.50;;;10.85;49.62
58879;BME280;44660;42.664;23.266;2023-05-03T06:02:39;94917.66;;;10.87;50.07
58879;BME280;44660;42.664;23.266;2023-05-03T06:05:05;94897.91;;;10.83;50.03
58879;BME280;44660;42.664;23.266;2023-05-03T06:07:31;94912.56;;;10.97;49.73
58879;BME280;44660;42.664;23.266;2023-05-03T06:09:56;94923.16;;;11.09;49.54
58879;BME280;44660;42.664;23.266;2023-05-03T06:12:21;94916.13;;;11.03;49.45
58879;BME280;44660;42.664;23.266;2023-05-03T06:14:47;94923.22;;;11.26;49.42
58879;BME280;44660;42.664;23.266;2023-05-03T06:17:13;94915.72;;;11.23;49.32
58879;BME280;44660;42.664;23.266;2023-05-03T06:19:38;94923.69;;;11.23;49.04
58879;BME280;44660;42.664;23.266;2023-05-03T06:22:04;94922.00;;;11.17;49.03
58879;BME280;44660;42.664;23.266;2023-05-03T06:24:30;94889.28;;;11.04;49.03
58879;BME280;44660;42.664;23.266;2023-05-03T06:26:57;94898.72;;;11.12;49.34
58879;BME280;44660;42.664;23.266;2023-05-03T06:29:24;94871.66;;;11.15;49.43
58879;BME280;44660;42.664;23.266;2023-05-03T06:31:50;94892.66;;;11.28;49.51
58879;BME280;44660;42.664;23.266;2023-05-03T06:34:18;94884.72;;;11.17;49.66
58879;BME280;44660;42.664;23.266;2023-05-03T06:36:48;94832.09;;;10.90;49.96
58879;BME280;44660;42.664;23.266;2023-05-03T06:39:14;94885.75;;;11.27;49.48
58879;BME280;44660;42.664;23.266;2023-05-03T06:41:40;94896.00;;;11.36;49.41
58879;BME280;44660;42.664;23.266;2023-05-03T06:44:05;94887.03;;;11.42;49.31
58879;BME280;44660;42.664;23.266;2023-05-03T06:46:34;94879.94;;;11.48;49.42
58879;BME280;44660;42.664;23.266;2023-05-03T06:48:59;94875.28;;;11.55;48.96
58879;BME280;44660;42.664;23.266;2023-05-03T06:51:26;94873.19;;;11.57;49.45
58879;BME280;44660;42.664;23.266;2023-05-03T06:53:56;94880.16;;;11.58;49.01
58879;BME280;44660;42.664;23.266;2023-05-03T06:56:22;94879.00;;;11.54;49.58
58879;BME280;44660;42.664;23.266;2023-05-03T06:58:48;94864.75;;;11.31;49.06
58879;BME280;44660;42.664;23.266;2023-05-03T07:01:17;94886.47;;;11.40;49.47
58879;BME280;44660;42.664;23.266;2023-05-03T07:03:43;94846.84;;;11.26;49.61
58879;BME280;44660;42.664;23.266;2023-05-03T07:06:08;94854.44;;;11.35;49.55
58879;BME280;44660;42.664;23.266;2023-05-03T07:08:34;94840.25;;;11.29;49.08
58879;BME280;44660;42.664;23.266;2023-05-03T07:11:00;94851.75;;;11.18;49.59
58879;BME280;44660;42.664;23.266;2023-05-03T07:13:25;94858.78;;;11.24;49.46
58879;BME280;44660;42.664;23.266;2023-05-03T07:15:51;94846.03;;;11.26;48.86
58879;BME280;44660;42.664;23.266;2023-05-03T07:18:16;94853.72;;;11.22;49.41
58879;BME280;44660;42.664;23.266;2023-05-03T07:20:42;94877.84;;;11.33;49.63
58879;BME280;44660;42.664;23.266;2023-05-03T07:23:08;94859.81;;;11.23;49.71
58879;BME280;44660;42.664;23.266;2023-05-03T07:25:33;94860.59;;;11.35;49.20
58879;BME280;44660;42.664;23.266;2023-05-03T07:27:59;94897.78;;;11.47;49.56
58879;BME280;44660;42.664;23.266;2023-05-03T07:30:25;94893.47;;;11.58;49.40
58879;BME280;44660;42.664;23.266;2023-05-03T07:32:51;94901.94;;;11.72;48.90
58879;BME280;44660;42.664;23.266;2023-05-03T07:35:16;94889.84;;;11.81;48.77
58879;BME280;44660;42.664;23.266;2023-05-03T07:37:43;94897.38;;;12.01;48.60
58879;BME280;44660;42.664;23.266;2023-05-03T07:40:09;94873.94;;;12.03;48.56
58879;BME280;44660;42.664;23.266;2023-05-03T07:42:36;94889.19;;;12.25;48.14
58879;BME280;44660;42.664;23.266;2023-05-03T07:45:02;94902.13;;;12.33;48.04
58879;BME280;44660;42.664;23.266;2023-05-03T07:47:27;94898.25;;;12.24;47.89
58879;BME280;44660;42.664;23.266;2023-05-03T07:49:53;94907.59;;;12.44;47.90
58879;BME280;44660;42.664;23.266;2023-05-03T07:52:19;94895.44;;;12.53;47.61
58879;BME280;44660;42.664;23.266;2023-05-03T07:54:44;94900.31;;;12.56;47.74
58879;BME280;44660;42.664;23.266;2023-05-03T07:57:13;94875.94;;;12.30;48.09
58879;BME280;44660;42.664;23.266;2023-05-03T07:59:39;94852.38;;;12.22;47.94
58879;BME280;44660;42.664;23.266;2023-05-03T08:02:05;94870.66;;;12.35;48.27
58879;BME280;44660;42.664;23.266;2023-05-03T08:04:30;94879.69;;;12.29;48.62
58879;BME280;44660;42.664;23.266;2023-05-03T08:06:59;94893.75;;;12.47;48.51
58879;BME280;44660;42.664;23.266;2023-05-03T08:09:25;94894.47;;;12.59;48.20
58879;BME280;44660;42.664;23.266;2023-05-03T08:11:53;94903.34;;;12.65;48.32
58879;BME280;44660;42.664;23.266;2023-05-03T08:14:19;94908.00;;;12.74;47.99
58879;BME280;44660;42.664;23.266;2023-05-03T08:16:44;94903.81;;;12.79;48.13
58879;BME280;44660;42.664;23.266;2023-05-03T08:19:10;94909.06;;;12.96;48.16
58879;BME280;44660;42.664;23.266;2023-05-03T08:21:36;94907.41;;;13.12;47.75
58879;BME280;44660;42.664;23.266;2023-05-03T08:24:01;94912.44;;;13.35;47.18
58879;BME280;44660;42.664;23.266;2023-05-03T08:26:30;94908.72;;;13.36;47.30
58879;BME280;44660;42.664;23.266;2023-05-03T08:28:55;94906.84;;;13.59;47.02
58879;BME280;44660;42.664;23.266;2023-05-03T08:31:21;94886.03;;;13.61;46.41
58879;BME280;44660;42.664;23.266;2023-05-03T08:33:47;94890.59;;;13.66;46.23
58879;BME280;44660;42.664;23.266;2023-05-03T08:36:12;94915.09;;;13.85;46.36
58879;BME280;44660;42.664;23.266;2023-05-03T08:38:38;94909.13;;;14.05;46.46
58879;BME280;44660;42.664;23.266;2023-05-03T08:41:28;94891.97;;;14.39;45.47
58879;BME280;44660;42.664;23.266;2023-05-03T08:43:55;94878.81;;;14.69;45.58
58879;BME280;44660;42.664;23.266;2023-05-03T08:46:21;94878.94;;;15.06;44.79
58879;BME280;44660;42.664;23.266;2023-05-03T08:48:48;94898.41;;;15.64;43.64
58879;BME280;44660;42.664;23.266;2023-05-03T08:51:15;94907.81;;;16.13;42.37
58879;BME280;44660;42.664;23.266;2023-05-03T08:53:42;94902.69;;;16.48;41.54
58879;BME280;44660;42.664;23.266;2023-05-03T08:56:08;94910.16;;;16.72;41.11
58879;BME280;44660;42.664;23.266;2023-05-03T08:58:35;94897.00;;;16.75;40.39
58879;BME280;44660;42.664;23.266;2023-05-03T09:01:04;94908.78;;;16.79;40.44
58879;BME280;44660;42.664;23.266;2023-05-03T09:03:30;94902.13;;;16.61;40.31
58879;BME280;44660;42.664;23.266;2023-05-03T09:05:56;94899.47;;;16.56;40.30
58879;BME280;44660;42.664;23.266;2023-05-03T09:08:26;94886.06;;;16.51;40.44
58879;BME280;44660;42.664;23.266;2023-05-03T09:10:52;94912.31;;;16.80;40.91
58879;BME280;44660;42.664;23.266;2023-05-03T09:13:17;94902.34;;;16.96;40.98
58879;BME280;44660;42.664;23.266;2023-05-03T09:15:52;94895.53;;;17.24;40.60
58879;BME280;44660;42.664;23.266;2023-05-03T09:18:18;94864.03;;;17.30;40.18
58879;BME280;44660;42.664;23.266;2023-05-03T09:20:45;94867.97;;;17.48;39.15
58879;BME280;44660;42.664;23.266;2023-05-03T09:23:16;94864.88;;;17.70;39.07
58879;BME280;44660;42.664;23.266;2023-05-03T09:25:48;94890.03;;;17.85;38.80
58879;BME280;44660;42.664;23.266;2023-05-03T09:28:16;94876.25;;;17.91;38.55
58879;BME280;44660;42.664;23.266;2023-05-03T09:30:43;94875.94;;;18.03;38.58
58879;BME280;44660;42.664;23.266;2023-05-03T09:33:09;94873.63;;;18.26;38.47
58879;BME280;44660;42.664;23.266;2023-05-03T09:35:38;94865.72;;;18.35;38.12
58879;BME280;44660;42.664;23.266;2023-05-03T09:38:34;94862.66;;;18.47;38.23
58879;BME280;44660;42.664;23.266;2023-05-03T09:41:03;94854.50;;;18.52;38.26
58879;BME280;44660;42.664;23.266;2023-05-03T09:43:32;94855.53;;;18.56;38.42
58879;BME280;44660;42.664;23.266;2023-05-03T09:46:09;94843.75;;;18.52;37.70
58879;BME280;44660;42.664;23.266;2023-05-03T09:48:36;94854.56;;;18.47;38.19
58879;BME280;44660;42.664;23.266;2023-05-03T09:51:02;94865.53;;;18.26;37.97
58879;BME280;44660;42.664;23.266;2023-05-03T09:53:31;94851.84;;;18.22;38.68
58879;BME280;44660;42.664;23.266;2023-05-03T09:55:56;94838.88;;;18.54;38.59
58879;BME280;44660;42.664;23.266;2023-05-03T09:58:24;94834.72;;;18.91;37.58
58879;BME280;44660;42.664;23.266;2023-05-03T10:00:50;94835.84;;;19.09;37.67
58879;BME280;44660;42.664;23.266;2023-05-03T10:03:27;94833.38;;;19.32;36.73
58879;BME280;44660;42.664;23.266;2023-05-03T10:05:57;94840.25;;;19.43;36.37
58879;BME280;44660;42.664;23.266;2023-05-03T10:08:37;94843.72;;;19.63;36.27
58879;BME280;44660;42.664;23.266;2023-05-03T10:11:07;94835.53;;;19.68;35.67
58879;BME280;44660;42.664;23.266;2023-05-03T10:13:33;94830.50;;;19.80;36.67
58879;BME280;44660;42.664;23.266;2023-05-03T10:16:05;94816.47;;;19.83;35.83
58879;BME280;44660;42.664;23.266;2023-05-03T10:18:47;94822.72;;;19.98;35.54
58879;BME280;44660;42.664;23.266;2023-05-03T10:21:19;94819.50;;;19.96;35.57
58879;BME280;44660;42.664;23.266;2023-05-03T10:26:39;94771.75;;;19.96;36.35
58879;BME280;44660;42.664;23.266;2023-05-03T10:29:04;94777.72;;;19.93;36.06
58879;BME280;44660;42.664;23.266;2023-05-03T10:31:44;94795.53;;;20.08;35.99
58879;BME280;44660;42.664;23.266;2023-05-03T10:34:24;94785.66;;;20.17;35.50
58879;BME280;44660;42.664;23.266;2023-05-03T10:36:51;94788.16;;;20.28;35.87
58879;BME280;44660;42.664;23.266;2023-05-03T10:39:21;94784.00;;;20.35;35.51
58879;BME280;44660;42.664;23.266;2023-05-03T10:42:05;94768.38;;;20.18;35.20
58879;BME280;44660;42.664;23.266;2023-05-03T10:44:53;94787.34;;;20.13;35.55
58879;BME280;44660;42.664;23.266;2023-05-03T10:47:22;94773.94;;;19.75;36.41
58879;BME280;44660;42.664;23.266;2023-05-03T10:50:33;94788.59;;;19.69;36.82
58879;BME280;44660;42.664;23.266;2023-05-03T10:55:00;94784.25;;;18.97;37.87
58879;BME280;44660;42.664;23.266;2023-05-03T10:57:30;94794.59;;;18.89;38.35
58879;BME280;44660;42.664;23.266;2023-05-03T10:59:56;94726.91;;;18.28;38.93
58879;BME280;44660;42.664;23.266;2023-05-03T11:02:26;94750.84;;;18.06;39.61
58879;BME280;44660;42.664;23.266;2023-05-03T11:04:57;94794.44;;;18.32;39.67
58879;BME280;44660;42.664;23.266;2023-05-03T11:07:23;94785.19;;;18.38;39.43
58879;BME280;44660;42.664;23.266;2023-05-03T11:09:50;94790.81;;;18.42;39.56
58879;BME280;44660;42.664;23.266;2023-05-03T11:12:16;94779.81;;;18.38;39.66
58879;BME280;44660;42.664;23.266;2023-05-03T11:14:42;94778.56;;;18.31;39.89
58879;BME280;44660;42.664;23.266;2023-05-03T11:17:07;94753.38;;;18.21;39.81
58879;BME280;44660;42.664;23.266;2023-05-03T11:19:33;94759.22;;;18.28;39.91
58879;BME280;44660;42.664;23.266;2023-05-03T11:22:00;94771.00;;;18.33;39.34
58879;BME280;44660;42.664;23.266;2023-05-03T11:24:26;94734.69;;;18.06;39.31
58879;BME280;44660;42.664;23.266;2023-05-03T11:26:51;94757.97;;;18.21;39.54
58879;BME280;44660;42.664;23.266;2023-05-03T11:29:17;94750.09;;;18.24;39.63
58879;BME280;44660;42.664;23.266;2023-05-03T11:31:43;94755.66;;;18.33;39.79
58879;BME280;44660;42.664;23.266;2023-05-03T11:34:12;94747.97;;;18.21;39.17
58879;BME280;44660;42.664;23.266;2023-05-03T11:36:40;94759.22;;;18.28;39.94
58879;BME280;44660;42.664;23.266;2023-05-03T11:39:06;94748.31;;;18.15;39.88
58879;BME280;44660;42.664;23.266;2023-05-03T11:41:32;94752.94;;;18.09;40.13
58879;BME280;44660;42.664;23.266;2023-05-03T11:43:58;94744.75;;;17.95;40.23
58879;BME280;44660;42.664;23.266;2023-05-03T11:46:44;94745.91;;;18.13;40.49
58879;BME280;44660;42.664;23.266;2023-05-03T11:49:16;94710.50;;;18.06;40.70
58879;BME280;44660;42.664;23.266;2023-05-03T11:51:42;94730.22;;;18.44;40.62
58879;BME280;44660;42.664;23.266;2023-05-03T11:54:08;94722.84;;;18.55;39.56
58879;BME280;44660;42.664;23.266;2023-05-03T11:56:33;94700.13;;;18.42;40.51
58879;BME280;44660;42.664;23.266;2023-05-03T11:58:59;94656.03;;;18.14;39.58
58879;BME280;44660;42.664;23.266;2023-05-03T12:01:27;94686.97;;;18.36;39.93
58879;BME280;44660;42.664;23.266;2023-05-03T12:04:02;94681.75;;;18.44;40.11
58879;BME280;44660;42.664;23.266;2023-05-03T12:06:33;94682.22;;;18.52;40.41
58879;BME280;44660;42.664;23.266;2023-05-03T12:09:00;94704.09;;;18.88;40.56
58879;BME280;44660;42.664;23.266;2023-05-03T12:11:25;94724.84;;;19.07;39.76
58879;BME280;44660;42.664;23.266;2023-05-03T12:13:56;94702.66;;;18.96;40.43
58879;BME280;44660;42.664;23.266;2023-05-03T12:16:22;94704.16;;;18.83;40.42
58879;BME280;44660;42.664;23.266;2023-05-03T12:18:55;94701.13;;;18.90;40.98
58879;BME280;44660;42.664;23.266;2023-05-03T12:21:23;94697.59;;;18.89;40.34
58879;BME280;44660;42.664;23.266;2023-05-03T12:23:49;94688.72;;;18.70;40.58
58879;BME280;44660;42.664;23.266;2023-05-03T12:26:19;94695.97;;;18.50;41.10
58879;BME280;44660;42.664;23.266;2023-05-03T12:28:49;94706.38;;;18.57;41.01
58879;BME280;44660;42.664;23.266;2023-05-03T12:31:15;94700.56;;;18.25;41.37
58879;BME280;44660;42.664;23.266;2023-05-03T12:33:41;94667.78;;;17.70;42.31
58879;BME280;44660;42.664;23.266;2023-05-03T12:36:07;94699.69;;;17.52;42.95
58879;BME280;44660;42.664;23.266;2023-05-03T12:38:33;94687.34;;;17.17;43.52
58879;BME280;44660;42.664;23.266;2023-05-03T12:40:59;94714.56;;;17.05;43.98
58879;BME280;44660;42.664;23.266;2023-05-03T12:43:25;94703.91;;;16.84;44.34
58879;BME280;44660;42.664;23.266;2023-05-03T12:45:50;94701.91;;;16.60;44.85
58879;BME280;44660;42.664;23.266;2023-05-03T12:48:16;94708.41;;;16.44;45.71
58879;BME280;44660;42.664;23.266;2023-05-03T12:50:42;94679.34;;;16.06;45.83
58879;BME280;44660;42.664;23.266;2023-05-03T12:53:07;94697.03;;;16.02;46.46
58879;BME280;44660;42.664;23.266;2023-05-03T12:55:32;94700.06;;;15.85;46.97
58879;BME280;44660;42.664;23.266;2023-05-03T12:57:59;94685.06;;;15.58;47.93
58879;BME280;44660;42.664;23.266;2023-05-03T13:00:25;94679.72;;;15.48;47.72